sensor_id;sensor_type;location;lat;lon;timestamp;pressure;altitude;pressure_sealevel;temperature;humidity
25560;BME280;13450;49.374;8.584;2022-09-30T00:02:26;99640.00;;;10.00;100.00
25560;BME280;13450;49.374;8.584;2022-09-30T00:04:54;99646.56;;;9.97;100.00
25560;BME280;13450;49.374;8.584;2022-09-30T00:07:20;99651.91;;;9.97;100.00
25560;BME280;13450;49.374;8.584;2022-09-30T00:09:45;99646.97;;;9.94;100.00
25560;BME280;13450;49.374;8.584;2022-09-30T00:12:12;99649.00;;;9.92;100.00
25560;BME280;13450;49.374;8.584;2022-09-30T00:14:39;99660.09;;;9.89;100.00
25560;BME280;13450;49.374;8.584;2022-09-30T00:17:04;99651.88;;;9.84;100.00
25560;BME280;13450;49.374;8.584;2022-09-30T00:19:30;99664.41;;;9.83;100.00
25560;BME280;13450;49.374;8.584;2022-09-30T00:21:55;99652.25;;;9.80;100.00
25560;BME280;13450;49.374;8.584;2022-09-30T00:24:20;99653.47;;;9.78;100.00
25560;BME280;13450;49.374;8.584;2022-09-30T00:26:46;99647.31;;;9.77;100.00
25560;BME280;13450;49.374;8.584;2022-09-30T00:29:11;99649.16;;;9.77;100.00
25560;BME280;13450;49.374;8.584;2022-09-30T00:31:37;99648.16;;;9.78;100.00
25560;BME280;13450;49.374;8.584;2022-09-30T00:34:03;99651.44;;;9.80;100.00
25560;BME280;13450;49.374;8.584;2022-09-30T00:36:40;99654.09;;;9.80;100.00
25560;BME280;13450;49.374;8.584;2022-09-30T00:39:09;99659.84;;;9.77;100.00
25560;BME280;13450;49.374;8.584;2022-09-30T00:41:35;99656.75;;;9.73;100.00
25560;BME280;13450;49.374;8.584;2022-09-30T00:44:37;99658.38;;;9.74;100.00
25560;BME280;13450;49.374;8.584;2022-09-30T00:46:46;99659.41;;;9.73;100.00
25560;BME280;13450;49.374;8.584;2022-09-30T00:49:18;99653.03;;;9.74;100.00
25560;BME280;13450;49.374;8.584;2022-09-30T00:51:49;99655.94;;;9.73;100.00
25560;BME280;13450;49.374;8.584;2022-09-30T00:54:22;99651.41;;;9.73;100.00
25560;BME280;13450;49.374;8.584;2022-09-30T00:56:51;99659.19;;;9.68;100.00
25560;BME280;13450;49.374;8.584;2022-09-30T00:59:22;99661.63;;;9.63;100.00
25560;BME280;13450;49.374;8.584;2022-09-30T01:01:50;99660.78;;;9.62;100.00
25560;BME280;13450;49.374;8.584;2022-09-30T01:04:25;99659.97;;;9.55;100.00
25560;BME280;13450;49.374;8.584;2022-09-30T01:06:53;99659.13;;;9.54;100.00
25560;BME280;13450;49.374;8.584;2022-09-30T01:09:18;99661.75;;;9.48;100.00
25560;BME280;13450;49.374;8.584;2022-09-30T01:11:45;99659.28;;;9.46;100.00
25560;BME280;13450;49.374;8.584;2022-09-30T01:14:17;99661.53;;;9.42;100.00
25560;BME280;13450;49.374;8.584;2022-09-30T01:19:47;99663.31;;;9.35;100.00
25560;BME280;13450;49.374;8.584;2022-09-30T01:25:06;99667.63;;;9.29;100.00
25560;BME280;13450;49.374;8.584;2022-09-30T01:30:18;99680.09;;;9.22;100.00
25560;BME280;13450;49.374;8.584;2022-09-30T01:38:20;99667.84;;;9.06;100.00
25560;BME280;13450;49.374;8.584;2022-09-30T01:41:08;99663.31;;;9.07;100.00
25560;BME280;13450;49.374;8.584;2022-09-30T01:44:13;99663.75;;;9.03;100.00
25560;BME280;13450;49.374;8.584;2022-09-30T01:46:50;99676.44;;;9.01;100.00
25560;BME280;13450;49.374;8.584;2022-09-30T01:49:38;99676.44;;;9.01;100.00
25560;BME280;13450;49.374;8.584;2022-09-30T01:55:19;99690.41;;;9.03;100.00
25560;BME280;13450;49.374;8.584;2022-09-30T01:57:55;99699.69;;;9.08;100.00
25560;BME280;13450;49.374;8.584;2022-09-30T02:00:22;99698.91;;;9.14;100.00
25560;BME280;13450;49.374;8.584;2022-09-30T02:02:55;99706.97;;;9.21;100.00
25560;BME280;13450;49.374;8.584;2022-09-30T02:05:52;99704.53;;;9.26;100.00
25560;BME280;13450;49.374;8.584;2022-09-30T02:08:28;99709.94;;;9.33;100.00
25560;BME280;13450;49.374;8.584;2022-09-30T02:11:19;99706.50;;;9.39;100.00
25560;BME280;13450;49.374;8.584;2022-09-30T02:14:01;99710.44;;;9.43;100.00
25560;BME280;13450;49.374;8.584;2022-09-30T02:19:15;99716.44;;;9.52;100.00
25560;BME280;13450;49.374;8.584;2022-09-30T02:21:44;99719.09;;;9.52;100.00
25560;BME280;13450;49.374;8.584;2022-09-30T02:24:14;99719.53;;;9.55;100.00
25560;BME280;13450;49.374;8.584;2022-09-30T02:26:43;99720.78;;;9.60;100.00
25560;BME280;13450;49.374;8.584;2022-09-30T02:29:32;99721.44;;;9.62;100.00
25560;BME280;13450;49.374;8.584;2022-09-30T02:32:09;99727.19;;;9.65;100.00
25560;BME280;13450;49.374;8.584;2022-09-30T02:34:40;99726.16;;;9.66;100.00
25560;BME280;13450;49.374;8.584;2022-09-30T02:37:14;99732.97;;;9.69;100.00
25560;BME280;13450;49.374;8.584;2022-09-30T02:42:19;99732.78;;;9.71;100.00
25560;BME280;13450;49.374;8.584;2022-09-30T02:44:51;99731.13;;;9.70;100.00
25560;BME280;13450;49.374;8.584;2022-09-30T02:50:34;99731.50;;;9.66;100.00
25560;BME280;13450;49.374;8.584;2022-09-30T02:58:34;99725.34;;;9.66;100.00
25560;BME280;13450;49.374;8.584;2022-09-30T03:01:02;99722.03;;;9.64;100.00
25560;BME280;13450;49.374;8.584;2022-09-30T03:06:09;99728.03;;;9.66;100.00
25560;BME280;13450;49.374;8.584;2022-09-30T03:08:37;99727.78;;;9.61;100.00
25560;BME280;13450;49.374;8.584;2022-09-30T03:11:03;99734.13;;;9.60;100.00
25560;BME280;13450;49.374;8.584;2022-09-30T03:19:23;99731.03;;;9.56;100.00
25560;BME280;13450;49.374;8.584;2022-09-30T03:30:10;99740.88;;;9.55;100.00
25560;BME280;13450;49.374;8.584;2022-09-30T03:33:00;99740.28;;;9.53;100.00
25560;BME280;13450;49.374;8.584;2022-09-30T03:36:07;99732.66;;;9.50;100.00
25560;BME280;13450;49.374;8.584;2022-09-30T03:44:25;99730.31;;;9.40;100.00
25560;BME280;13450;49.374;8.584;2022-09-30T03:46:58;99739.16;;;9.41;100.00
25560;BME280;13450;49.374;8.584;2022-09-30T03:49:33;99737.88;;;9.37;100.00
25560;BME280;13450;49.374;8.584;2022-09-30T03:52:04;99744.41;;;9.27;100.00
25560;BME280;13450;49.374;8.584;2022-09-30T03:54:30;99742.75;;;9.26;100.00
25560;BME280;13450;49.374;8.584;2022-09-30T03:56:57;99744.78;;;9.24;100.00
25560;BME280;13450;49.374;8.584;2022-09-30T03:59:24;99745.13;;;9.14;100.00
25560;BME280;13450;49.374;8.584;2022-09-30T04:01:53;99745.50;;;9.11;100.00
25560;BME280;13450;49.374;8.584;2022-09-30T04:04:18;99747.88;;;8.99;100.00
25560;BME280;13450;49.374;8.584;2022-09-30T04:06:46;99745.13;;;8.93;100.00
25560;BME280;13450;49.374;8.584;2022-09-30T04:09:12;99746.09;;;8.85;100.00
25560;BME280;13450;49.374;8.584;2022-09-30T04:11:37;99752.94;;;8.72;100.00
25560;BME280;13450;49.374;8.584;2022-09-30T04:14:02;99762.28;;;8.61;100.00
25560;BME280;13450;49.374;8.584;2022-09-30T04:16:31;99759.72;;;8.53;100.00
25560;BME280;13450;49.374;8.584;2022-09-30T04:18:59;99766.31;;;8.42;100.00
25560;BME280;13450;49.374;8.584;2022-09-30T04:21:25;99771.75;;;8.34;100.00
25560;BME280;13450;49.374;8.584;2022-09-30T04:23:56;99767.38;;;8.26;100.00
25560;BME280;13450;49.374;8.584;2022-09-30T04:26:22;99772.88;;;8.24;100.00
25560;BME280;13450;49.374;8.584;2022-09-30T04:28:47;99772.25;;;8.22;100.00
25560;BME280;13450;49.374;8.584;2022-09-30T04:31:13;99776.56;;;8.23;100.00
25560;BME280;13450;49.374;8.584;2022-09-30T04:33:42;99778.59;;;8.21;100.00
25560;BME280;13450;49.374;8.584;2022-09-30T04:36:09;99789.28;;;8.21;100.00
25560;BME280;13450;49.374;8.584;2022-09-30T04:38:34;99792.13;;;8.20;100.00
25560;BME280;13450;49.374;8.584;2022-09-30T04:41:04;99790.91;;;8.22;100.00
25560;BME280;13450;49.374;8.584;2022-09-30T04:43:31;99802.59;;;8.21;100.00
25560;BME280;13450;49.374;8.584;2022-09-30T04:45:59;99805.72;;;8.25;100.00
25560;BME280;13450;49.374;8.584;2022-09-30T04:48:25;99812.31;;;8.29;100.00
25560;BME280;13450;49.374;8.584;2022-09-30T04:50:52;99811.50;;;8.29;100.00
25560;BME280;13450;49.374;8.584;2022-09-30T04:53:18;99809.09;;;8.34;100.00
25560;BME280;13450;49.374;8.584;2022-09-30T04:55:44;99816.09;;;8.35;100.00
25560;BME280;13450;49.374;8.584;2022-09-30T04:58:10;99818.75;;;8.35;100.00
25560;BME280;13450;49.374;8.584;2022-09-30T05:00:36;99817.75;;;8.36;100.00
25560;BME280;13450;49.374;8.584;2022-09-30T05:03:03;99821.44;;;8.35;100.00
25560;BME280;13450;49.374;8.584;2022-09-30T05:05:29;99819.47;;;8.29;100.00
25560;BME280;13450;49.374;8.584;2022-09-30T05:08:02;99825.00;;;8.27;100.00
25560;BME280;13450;49.374;8.584;2022-09-30T05:10:28;99827.84;;;8.25;100.00
25560;BME280;13450;49.374;8.584;2022-09-30T05:12:54;99827.03;;;8.25;100.00
25560;BME280;13450;49.374;8.584;2022-09-30T05:15:20;99828.22;;;8.22;100.00
25560;BME280;13450;49.374;8.584;2022-09-30T05:17:47;99836.41;;;8.21;100.00
25560;BME280;13450;49.374;8.584;2022-09-30T05:20:13;99840.44;;;8.17;100.00
25560;BME280;13450;49.374;8.584;2022-09-30T05:22:38;99845.78;;;8.17;100.00
25560;BME280;13450;49.374;8.584;2022-09-30T05:25:04;99846.31;;;8.12;100.00
25560;BME280;13450;49.374;8.584;2022-09-30T05:27:30;99850.19;;;8.09;100.00
25560;BME280;13450;49.374;8.584;2022-09-30T05:29:55;99844.03;;;8.09;100.00
25560;BME280;13450;49.374;8.584;2022-09-30T05:32:20;99851.09;;;8.02;100.00
25560;BME280;13450;49.374;8.584;2022-09-30T05:34:46;99853.75;;;8.02;100.00
25560;BME280;13450;49.374;8.584;2022-09-30T05:37:14;99861.47;;;7.96;100.00
25560;BME280;13450;49.374;8.584;2022-09-30T05:39:40;99869.66;;;7.95;100.00
25560;BME280;13450;49.374;8.584;2022-09-30T05:42:06;99869.19;;;7.91;100.00
25560;BME280;13450;49.374;8.584;2022-09-30T05:44:31;99867.16;;;7.93;100.00
25560;BME280;13450;49.374;8.584;2022-09-30T05:46:57;99863.50;;;7.94;100.00
25560;BME280;13450;49.374;8.584;2022-09-30T05:49:24;99869.47;;;7.96;100.00
25560;BME280;13450;49.374;8.584;2022-09-30T05:51:49;99878.94;;;7.99;100.00
25560;BME280;13450;49.374;8.584;2022-09-30T05:54:14;99874.38;;;8.08;100.00
25560;BME280;13450;49.374;8.584;2022-09-30T05:56:40;99870.28;;;8.12;100.00
25560;BME280;13450;49.374;8.584;2022-09-30T05:59:05;99877.75;;;8.17;100.00
25560;BME280;13450;49.374;8.584;2022-09-30T06:01:31;99885.56;;;8.18;100.00
25560;BME280;13450;49.374;8.584;2022-09-30T06:03:57;99897.53;;;8.22;100.00
25560;BME280;13450;49.374;8.584;2022-09-30T06:06:23;99895.59;;;8.31;100.00
25560;BME280;13450;49.374;8.584;2022-09-30T06:08:49;99907.28;;;8.45;100.00
25560;BME280;13450;49.374;8.584;2022-09-30T06:11:16;99908.13;;;8.61;100.00
25560;BME280;13450;49.374;8.584;2022-09-30T06:13:43;99910.97;;;8.74;100.00
25560;BME280;13450;49.374;8.584;2022-09-30T06:16:09;99914.81;;;8.87;100.00
25560;BME280;13450;49.374;8.584;2022-09-30T06:18:35;99919.03;;;8.96;100.00
25560;BME280;13450;49.374;8.584;2022-09-30T06:21:07;99910.53;;;9.08;100.00
25560;BME280;13450;49.374;8.584;2022-09-30T06:23:33;99912.28;;;9.15;100.00
25560;BME280;13450;49.374;8.584;2022-09-30T06:26:03;99920.97;;;9.24;100.00
25560;BME280;13450;49.374;8.584;2022-09-30T06:28:29;99919.97;;;9.25;100.00
25560;BME280;13450;49.374;8.584;2022-09-30T06:30:54;99931.53;;;9.33;100.00
25560;BME280;13450;49.374;8.584;2022-09-30T06:33:20;99937.91;;;9.32;100.00
25560;BME280;13450;49.374;8.584;2022-09-30T06:35:46;99944.53;;;9.36;100.00
25560;BME280;13450;49.374;8.584;2022-09-30T06:38:12;99951.13;;;9.40;100.00
25560;BME280;13450;49.374;8.584;2022-09-30T06:40:40;99951.13;;;9.40;100.00
25560;BME280;13450;49.374;8.584;2022-09-30T06:43:08;99959.09;;;9.33;100.00
25560;BME280;13450;49.374;8.584;2022-09-30T06:45:34;99959.25;;;9.32;100.00
25560;BME280;13450;49.374;8.584;2022-09-30T06:48:02;99955.97;;;9.29;100.00
25560;BME280;13450;49.374;8.584;2022-09-30T06:50:28;99959.63;;;9.28;100.00
25560;BME280;13450;49.374;8.584;2022-09-30T06:53:01;99960.66;;;9.27;100.00
25560;BME280;13450;49.374;8.584;2022-09-30T06:55:29;99945.59;;;9.20;100.00
25560;BME280;13450;49.374;8.584;2022-09-30T06:57:55;99954.13;;;9.15;100.00
25560;BME280;13450;49.374;8.584;2022-09-30T07:00:24;99956.91;;;9.07;100.00
25560;BME280;13450;49.374;8.584;2022-09-30T07:02:53;99959.88;;;9.12;100.00
25560;BME280;13450;49.374;8.584;2022-09-30T07:05:18;99971.84;;;9.16;100.00
25560;BME280;13450;49.374;8.584;2022-09-30T07:07:45;99960.91;;;9.33;100.00
25560;BME280;13450;49.374;8.584;2022-09-30T07:10:11;99965.19;;;9.49;100.00
25560;BME280;13450;49.374;8.584;2022-09-30T07:12:36;99962.41;;;9.57;100.00
25560;BME280;13450;49.374;8.584;2022-09-30T07:15:01;99963.88;;;9.60;100.00
25560;BME280;13450;49.374;8.584;2022-09-30T07:17:27;99965.25;;;9.55;100.00
25560;BME280;13450;49.374;8.584;2022-09-30T07:19:53;99965.06;;;9.57;100.00
25560;BME280;13450;49.374;8.584;2022-09-30T07:22:18;99962.50;;;9.49;100.00
25560;BME280;13450;49.374;8.584;2022-09-30T07:24:59;99966.03;;;9.49;100.00
25560;BME280;13450;49.374;8.584;2022-09-30T07:27:26;99962.47;;;9.64;100.00
25560;BME280;13450;49.374;8.584;2022-09-30T07:29:54;99967.50;;;9.74;100.00
25560;BME280;13450;49.374;8.584;2022-09-30T07:32:20;99966.16;;;9.85;100.00
25560;BME280;13450;49.374;8.584;2022-09-30T07:34:46;99977.53;;;9.93;100.00
25560;BME280;13450;49.374;8.584;2022-09-30T07:37:14;99978.88;;;10.04;100.00
25560;BME280;13450;49.374;8.584;2022-09-30T07:39:41;99987.19;;;10.16;100.00
25560;BME280;13450;49.374;8.584;2022-09-30T07:42:07;99988.38;;;10.36;100.00
25560;BME280;13450;49.374;8.584;2022-09-30T07:44:34;99993.03;;;10.55;100.00
25560;BME280;13450;49.374;8.584;2022-09-30T07:47:01;100003.28;;;10.80;100.00
25560;BME280;13450;49.374;8.584;2022-09-30T07:49:27;100012.00;;;10.96;100.00
25560;BME280;13450;49.374;8.584;2022-09-30T07:51:56;100010.59;;;11.00;100.00
25560;BME280;13450;49.374;8.584;2022-09-30T07:54:25;100004.19;;;10.94;100.00
25560;BME280;13450;49.374;8.584;2022-09-30T07:56:51;100014.88;;;10.88;100.00
25560;BME280;13450;49.374;8.584;2022-09-30T07:59:17;100011.63;;;10.99;100.00
25560;BME280;13450;49.374;8.584;2022-09-30T08:01:45;100017.81;;;10.99;100.00
25560;BME280;13450;49.374;8.584;2022-09-30T08:04:12;100023.59;;;11.03;100.00
25560;BME280;13450;49.374;8.584;2022-09-30T08:06:43;100021.94;;;11.02;100.00
25560;BME280;13450;49.374;8.584;2022-09-30T08:09:10;100033.03;;;10.99;100.00
25560;BME280;13450;49.374;8.584;2022-09-30T08:11:39;100031.00;;;11.01;100.00
25560;BME280;13450;49.374;8.584;2022-09-30T08:14:07;100036.00;;;11.18;100.00
25560;BME280;13450;49.374;8.584;2022-09-30T08:16:32;100031.16;;;11.35;100.00
25560;BME280;13450;49.374;8.584;2022-09-30T08:18:59;100034.09;;;11.47;100.00
25560;BME280;13450;49.374;8.584;2022-09-30T08:21:26;100038.44;;;11.61;100.00
25560;BME280;13450;49.374;8.584;2022-09-30T08:23:52;100046.31;;;11.70;100.00
25560;BME280;13450;49.374;8.584;2022-09-30T08:26:18;100051.91;;;11.88;100.00
25560;BME280;13450;49.374;8.584;2022-09-30T08:28:44;100045.34;;;11.98;100.00
25560;BME280;13450;49.374;8.584;2022-09-30T08:31:16;100053.22;;;12.06;100.00
25560;BME280;13450;49.374;8.584;2022-09-30T08:33:42;100052.19;;;12.07;100.00
25560;BME280;13450;49.374;8.584;2022-09-30T08:36:10;100044.34;;;12.12;100.00
25560;BME280;13450;49.374;8.584;2022-09-30T08:38:36;100042.50;;;12.20;100.00
25560;BME280;13450;49.374;8.584;2022-09-30T08:43:42;100043.13;;;12.35;100.00
25560;BME280;13450;49.374;8.584;2022-09-30T08:46:15;100056.97;;;12.46;100.00
25560;BME280;13450;49.374;8.584;2022-09-30T08:51:38;100058.41;;;12.48;100.00
25560;BME280;13450;49.374;8.584;2022-09-30T08:54:13;100058.41;;;12.62;100.00
25560;BME280;13450;49.374;8.584;2022-09-30T08:56:39;100063.56;;;12.63;100.00
25560;BME280;13450;49.374;8.584;2022-09-30T09:01:46;100063.13;;;12.66;100.00
25560;BME280;13450;49.374;8.584;2022-09-30T09:04:13;100062.50;;;12.78;100.00
25560;BME280;13450;49.374;8.584;2022-09-30T09:14:46;100055.19;;;13.12;100.00
25560;BME280;13450;49.374;8.584;2022-09-30T09:17:27;100066.16;;;13.11;100.00
25560;BME280;13450;49.374;8.584;2022-09-30T09:20:15;100060.56;;;13.12;100.00
25560;BME280;13450;49.374;8.584;2022-09-30T09:22:43;100065.72;;;13.07;100.00
25560;BME280;13450;49.374;8.584;2022-09-30T09:25:13;100065.53;;;13.02;100.00
25560;BME280;13450;49.374;8.584;2022-09-30T09:27:59;100064.22;;;13.25;100.00
25560;BME280;13450;49.374;8.584;2022-09-30T09:30:32;100064.00;;;13.33;100.00
25560;BME280;13450;49.374;8.584;2022-09-30T09:35:53;100059.09;;;13.69;100.00
25560;BME280;13450;49.374;8.584;2022-09-30T09:44:05;100065.19;;;13.57;100.00
25560;BME280;13450;49.374;8.584;2022-09-30T09:46:42;100062.28;;;13.59;100.00
25560;BME280;13450;49.374;8.584;2022-09-30T09:52:18;100051.69;;;13.64;100.00
25560;BME280;13450;49.374;8.584;2022-09-30T09:57:30;100062.34;;;13.84;100.00
25560;BME280;13450;49.374;8.584;2022-09-30T10:13:00;100073.19;;;15.05;100.00
25560;BME280;13450;49.374;8.584;2022-09-30T10:15:26;100071.78;;;15.21;100.00
25560;BME280;13450;49.374;8.584;2022-09-30T10:17:56;100073.91;;;15.31;100.00
25560;BME280;13450;49.374;8.584;2022-09-30T10:20:32;100069.19;;;15.45;100.00
25560;BME280;13450;49.374;8.584;2022-09-30T10:23:17;100075.88;;;15.73;97.18
25560;BME280;13450;49.374;8.584;2022-09-30T10:26:00;100072.88;;;15.81;93.92
25560;BME280;13450;49.374;8.584;2022-09-30T10:28:43;100073.75;;;16.37;94.53
25560;BME280;13450;49.374;8.584;2022-09-30T10:31:17;100071.75;;;17.04;84.93
25560;BME280;13450;49.374;8.584;2022-09-30T10:33:52;100069.88;;;18.15;80.51
25560;BME280;13450;49.374;8.584;2022-09-30T10:36:21;100065.50;;;20.28;64.56
25560;BME280;13450;49.374;8.584;2022-09-30T10:39:00;100069.59;;;22.12;55.88
25560;BME280;13450;49.374;8.584;2022-09-30T10:41:30;100068.94;;;22.98;49.22
25560;BME280;13450;49.374;8.584;2022-09-30T10:43:59;100073.72;;;24.23;45.19
25560;BME280;13450;49.374;8.584;2022-09-30T10:46:31;100073.00;;;25.44;42.30
25560;BME280;13450;49.374;8.584;2022-09-30T10:49:07;100072.03;;;26.31;39.83
25560;BME280;13450;49.374;8.584;2022-09-30T10:51:33;100064.63;;;27.07;37.38
25560;BME280;13450;49.374;8.584;2022-09-30T10:54:00;100073.88;;;27.76;35.73
25560;BME280;13450;49.374;8.584;2022-09-30T10:56:41;100064.13;;;28.16;34.67
25560;BME280;13450;49.374;8.584;2022-09-30T10:59:17;100063.38;;;29.90;36.05
25560;BME280;13450;49.374;8.584;2022-09-30T11:01:56;100072.19;;;29.07;32.15
25560;BME280;13450;49.374;8.584;2022-09-30T11:10:02;100072.56;;;29.15;32.12
25560;BME280;13450;49.374;8.584;2022-09-30T11:12:43;100072.44;;;29.91;30.84
25560;BME280;13450;49.374;8.584;2022-09-30T11:18:15;100066.69;;;30.97;28.97
25560;BME280;13450;49.374;8.584;2022-09-30T11:20:49;100069.72;;;30.74;28.28
25560;BME280;13450;49.374;8.584;2022-09-30T11:23:25;100067.25;;;30.07;29.87
25560;BME280;13450;49.374;8.584;2022-09-30T11:26:24;100058.78;;;31.38;27.85
25560;BME280;13450;49.374;8.584;2022-09-30T11:29:21;100058.94;;;32.18;26.58
25560;BME280;13450;49.374;8.584;2022-09-30T11:38:04;100070.72;;;30.60;27.59
25560;BME280;13450;49.374;8.584;2022-09-30T11:41:01;100064.16;;;27.42;32.80
25560;BME280;13450;49.374;8.584;2022-09-30T11:43:45;100064.28;;;29.32;31.19
25560;BME280;13450;49.374;8.584;2022-09-30T11:49:41;100060.28;;;29.39;30.36
25560;BME280;13450;49.374;8.584;2022-09-30T11:52:26;100049.00;;;28.27;30.19
25560;BME280;13450;49.374;8.584;2022-09-30T11:55:10;100056.03;;;27.37;31.71
25560;BME280;13450;49.374;8.584;2022-09-30T12:00:25;100046.03;;;30.73;27.58
25560;BME280;13450;49.374;8.584;2022-09-30T12:03:06;100054.53;;;30.41;28.68
25560;BME280;13450;49.374;8.584;2022-09-30T12:05:38;100056.91;;;31.72;26.59
25560;BME280;13450;49.374;8.584;2022-09-30T12:08:12;100054.53;;;32.88;25.11
25560;BME280;13450;49.374;8.584;2022-09-30T12:10:43;100054.81;;;32.24;26.40
25560;BME280;13450;49.374;8.584;2022-09-30T12:13:25;100057.66;;;33.24;24.72
25560;BME280;13450;49.374;8.584;2022-09-30T12:15:55;100063.03;;;33.86;24.51
25560;BME280;13450;49.374;8.584;2022-09-30T12:20:59;100058.00;;;32.72;24.41
25560;BME280;13450;49.374;8.584;2022-09-30T12:26:02;100063.78;;;27.72;30.79
25560;BME280;13450;49.374;8.584;2022-09-30T12:37:07;100078.00;;;33.57;23.13
25560;BME280;13450;49.374;8.584;2022-09-30T12:42:42;100078.31;;;34.09;23.67
25560;BME280;13450;49.374;8.584;2022-09-30T12:48:07;100067.44;;;32.46;25.08
25560;BME280;13450;49.374;8.584;2022-09-30T12:53:21;100071.88;;;35.17;21.82
25560;BME280;13450;49.374;8.584;2022-09-30T12:55:49;100071.31;;;35.12;20.97
25560;BME280;13450;49.374;8.584;2022-09-30T12:58:20;100072.28;;;34.83;20.76
25560;BME280;13450;49.374;8.584;2022-09-30T13:01:10;100074.22;;;33.36;20.97
25560;BME280;13450;49.374;8.584;2022-09-30T13:06:15;100074.66;;;34.37;20.36
25560;BME280;13450;49.374;8.584;2022-09-30T13:08:47;100067.13;;;33.92;20.22
25560;BME280;13450;49.374;8.584;2022-09-30T13:19:38;100061.00;;;36.54;18.73
25560;BME280;13450;49.374;8.584;2022-09-30T13:25:12;100070.25;;;37.39;17.65
25560;BME280;13450;49.374;8.584;2022-09-30T13:27:53;100066.72;;;36.15;18.43
25560;BME280;13450;49.374;8.584;2022-09-30T13:30:36;100076.00;;;36.46;17.96
25560;BME280;13450;49.374;8.584;2022-09-30T13:48:48;100070.09;;;36.74;18.62
25560;BME280;13450;49.374;8.584;2022-09-30T13:51:24;100070.34;;;35.20;18.48
25560;BME280;13450;49.374;8.584;2022-09-30T13:53:57;100053.34;;;36.24;19.54
25560;BME280;13450;49.374;8.584;2022-09-30T13:56:27;100056.88;;;33.64;19.99
25560;BME280;13450;49.374;8.584;2022-09-30T14:07:45;100050.63;;;24.39;31.30
25560;BME280;13450;49.374;8.584;2022-09-30T14:13:37;100058.53;;;23.10;34.60
25560;BME280;13450;49.374;8.584;2022-09-30T14:21:43;100058.56;;;24.06;32.06
25560;BME280;13450;49.374;8.584;2022-09-30T14:24:15;100049.81;;;24.04;31.99
25560;BME280;13450;49.374;8.584;2022-09-30T14:31:57;100054.16;;;21.33;37.25
25560;BME280;13450;49.374;8.584;2022-09-30T14:34:24;100052.13;;;20.59;38.54
25560;BME280;13450;49.374;8.584;2022-09-30T14:36:51;100047.47;;;20.16;39.52
25560;BME280;13450;49.374;8.584;2022-09-30T14:39:26;100044.56;;;19.68;41.47
25560;BME280;13450;49.374;8.584;2022-09-30T14:41:58;100040.34;;;19.55;43.13
25560;BME280;13450;49.374;8.584;2022-09-30T14:44:29;100038.50;;;19.33;41.40
25560;BME280;13450;49.374;8.584;2022-09-30T14:47:02;100040.31;;;19.05;42.36
25560;BME280;13450;49.374;8.584;2022-09-30T14:49:31;100043.38;;;18.91;43.79
25560;BME280;13450;49.374;8.584;2022-09-30T14:54:31;100044.56;;;18.61;43.85
25560;BME280;13450;49.374;8.584;2022-09-30T14:59:33;100062.00;;;18.31;44.94
25560;BME280;13450;49.374;8.584;2022-09-30T15:02:11;100057.09;;;18.28;45.49
25560;BME280;13450;49.374;8.584;2022-09-30T15:04:47;100048.28;;;18.21;45.20
25560;BME280;13450;49.374;8.584;2022-09-30T15:07:15;100049.78;;;18.11;45.30
25560;BME280;13450;49.374;8.584;2022-09-30T15:09:42;100045.88;;;18.07;45.79
25560;BME280;13450;49.374;8.584;2022-09-30T15:12:19;100042.00;;;18.03;47.28
25560;BME280;13450;49.374;8.584;2022-09-30T15:14:51;100035.28;;;18.06;47.96
25560;BME280;13450;49.374;8.584;2022-09-30T15:17:24;100038.16;;;17.99;46.49
25560;BME280;13450;49.374;8.584;2022-09-30T15:19:51;100038.16;;;17.99;47.26
25560;BME280;13450;49.374;8.584;2022-09-30T15:22:17;100042.56;;;17.88;47.64
25560;BME280;13450;49.374;8.584;2022-09-30T15:24:46;100040.31;;;17.97;47.90
25560;BME280;13450;49.374;8.584;2022-09-30T15:27:25;100037.31;;;18.10;48.46
25560;BME280;13450;49.374;8.584;2022-09-30T15:29:54;100038.38;;;18.09;47.67
25560;BME280;13450;49.374;8.584;2022-09-30T15:32:22;100030.91;;;18.16;47.26
25560;BME280;13450;49.374;8.584;2022-09-30T15:34:48;100042.31;;;18.19;47.36
25560;BME280;13450;49.374;8.584;2022-09-30T15:37:22;100035.91;;;18.08;48.29
25560;BME280;13450;49.374;8.584;2022-09-30T15:39:48;100030.84;;;17.82;49.67
25560;BME280;13450;49.374;8.584;2022-09-30T15:42:53;100033.88;;;17.69;49.73
25560;BME280;13450;49.374;8.584;2022-09-30T15:47:59;100032.88;;;17.46;49.01
25560;BME280;13450;49.374;8.584;2022-09-30T15:50:43;100036.41;;;17.46;49.83
25560;BME280;13450;49.374;8.584;2022-09-30T15:53:20;100032.22;;;17.38;50.94
25560;BME280;13450;49.374;8.584;2022-09-30T15:55:52;100027.22;;;17.47;50.81
25560;BME280;13450;49.374;8.584;2022-09-30T16:01:17;100040.50;;;17.49;51.20
25560;BME280;13450;49.374;8.584;2022-09-30T16:03:51;100018.34;;;17.35;51.53
25560;BME280;13450;49.374;8.584;2022-09-30T16:06:22;100028.16;;;17.24;52.13
25560;BME280;13450;49.374;8.584;2022-09-30T16:08:57;100032.84;;;17.17;52.71
25560;BME280;13450;49.374;8.584;2022-09-30T16:11:39;100032.16;;;17.09;53.19
25560;BME280;13450;49.374;8.584;2022-09-30T16:14:42;100030.75;;;16.95;53.33
25560;BME280;13450;49.374;8.584;2022-09-30T16:17:17;100032.44;;;16.72;54.46
25560;BME280;13450;49.374;8.584;2022-09-30T16:19:52;100025.16;;;16.60;56.60
25560;BME280;13450;49.374;8.584;2022-09-30T16:25:29;100032.66;;;16.46;58.95
25560;BME280;13450;49.374;8.584;2022-09-30T16:27:57;100028.06;;;16.35;59.58
25560;BME280;13450;49.374;8.584;2022-09-30T16:30:24;100042.03;;;16.20;60.84
25560;BME280;13450;49.374;8.584;2022-09-30T16:32:52;100034.75;;;16.08;62.27
25560;BME280;13450;49.374;8.584;2022-09-30T16:35:21;100045.28;;;15.98;62.45
25560;BME280;13450;49.374;8.584;2022-09-30T16:37:59;100038.53;;;15.89;62.80
25560;BME280;13450;49.374;8.584;2022-09-30T16:40:26;100032.88;;;15.78;63.06